Time;durP1;ratioP1;P1;durP2;ratioP2;P2;SDS_P1;SDS_P2;PMS_P1;PMS_P2;Temp;Humidity;BMP_temperature;BMP_pressure;BME280_temperature;BME280_humidity;BME280_pressure;Samples;Min_cycle;Max_cycle;Signal;HPM_P1;HPM_P2
2022/06/10 00:00:42;;;;;;;23.95;10.15;;;;;;;19.77;60.36;99586.38;6214751;23;20024;-82
2022/06/10 00:03:10;;;;;;;22.73;10.85;;;;;;;19.77;60.53;99592.47;6225158;23;20012;-81
2022/06/10 00:05:37;;;;;;;17.20;9.35;;;;;;;19.73;60.28;99585.69;6232684;23;20036;-82
2022/06/10 00:08:10;;;;;;;23.98;10.35;;;;;;;19.80;60.29;99596.78;6217861;23;20016;-81
2022/06/10 00:10:36;;;;;;;17.20;9.48;;;;;;;19.75;60.34;99591.69;6216576;23;20016;-83
2022/06/10 00:13:03;;;;;;;24.63;9.93;;;;;;;19.78;60.55;99594.19;6215254;23;20031;-80
2022/06/10 00:15:29;;;;;;;21.40;10.05;;;;;;;19.75;60.67;99589.06;6225614;22;20111;-79
2022/06/10 00:17:56;;;;;;;26.80;10.73;;;;;;;19.78;60.48;99593.34;6198944;23;20019;-82
2022/06/10 00:20:26;;;;;;;16.70;9.32;;;;;;;19.71;60.84;99587.53;6250810;23;20626;-80
2022/06/10 00:22:52;;;;;;;17.08;10.00;;;;;;;19.68;60.99;99592.97;6217993;23;20024;-80
2022/06/10 00:25:19;;;;;;;19.25;9.27;;;;;;;19.68;61.19;99593.81;6219453;23;20019;-82
2022/06/10 00:27:46;;;;;;;27.25;10.70;;;;;;;19.70;61.48;99599.88;6244976;23;20074;-80
2022/06/10 00:30:14;;;;;;;19.70;9.63;;;;;;;19.62;61.53;99593.25;6192846;23;20462;-79
2022/06/10 00:32:41;;;;;;;22.60;10.48;;;;;;;19.54;61.76;99580.47;6167799;23;20023;-80
2022/06/10 00:35:08;;;;;;;22.15;9.85;;;;;;;19.65;61.45;99604.50;6222792;23;20095;-79
2022/06/10 00:37:34;;;;;;;19.33;9.73;;;;;;;19.49;61.56;99580.69;6204263;23;20071;-81
2022/06/10 00:40:01;;;;;;;18.27;9.25;;;;;;;19.62;61.76;99609.97;6218436;23;20094;-80
2022/06/10 00:42:28;;;;;;;20.52;9.68;;;;;;;19.55;61.91;99593.56;6219955;23;20039;-82
2022/06/10 00:44:55;;;;;;;18.30;8.55;;;;;;;19.65;62.02;99614.22;6261364;23;20000;-81
2022/06/10 00:47:29;;;;;;;17.05;9.05;;;;;;;19.57;61.95;99604.06;6245930;22;20101;-80
2022/06/10 00:50:00;;;;;;;21.05;9.52;;;;;;;19.64;61.66;99615.16;6246268;23;20004;-81
2022/06/10 00:52:34;;;;;;;21.02;9.23;;;;;;;19.62;62.03;99615.25;6224531;23;20043;-81
2022/06/10 00:55:04;;;;;;;18.63;9.27;;;;;;;19.64;62.17;99618.63;6223792;23;20078;-81
2022/06/10 00:57:38;;;;;;;21.23;9.77;;;;;;;19.63;61.99;99616.09;6252385;23;20016;-81
2022/06/10 01:00:11;;;;;;;20.35;9.40;;;;;;;19.50;62.06;99595.59;6199244;23;20046;-79
2022/06/10 01:02:38;;;;;;;24.70;9.93;;;;;;;19.62;62.40;99619.66;6251592;23;20434;-81
2022/06/10 01:05:14;;;;;;;24.35;9.82;;;;;;;19.63;62.40;99621.38;6196949;23;20016;-80
2022/06/10 01:07:48;;;;;;;27.08;10.07;;;;;;;19.58;62.61;99632.16;6249270;23;20086;-81
2022/06/10 01:10:17;;;;;;;20.10;9.15;;;;;;;19.64;62.71;99636.28;6220477;23;20073;-81
2022/06/10 01:13:06;;;;;;;19.25;9.75;;;;;;;19.58;62.93;99640.06;6220618;23;20019;-82
2022/06/10 01:15:41;;;;;;;16.35;8.80;;;;;;;19.66;62.88;99644.97;6177330;23;20469;-80
2022/06/10 01:18:25;;;;;;;21.77;8.95;;;;;;;19.63;62.84;99650.38;6194322;23;20044;-81
2022/06/10 01:20:59;;;;;;;20.30;9.30;;;;;;;19.69;63.16;99647.47;6219498;23;20051;-80
2022/06/10 01:23:47;;;;;;;22.45;9.82;;;;;;;19.72;63.09;99649.97;6194571;23;20027;-82
2022/06/10 01:29:41;;;;;;;28.75;9.85;;;;;;;19.78;63.09;99664.63;6218591;23;20012;-81
2022/06/10 01:32:32;;;;;;;25.02;10.85;;;;;;;19.69;63.14;99640.38;6219414;23;20034;-82
2022/06/10 01:35:40;;;;;;;26.70;10.10;;;;;;;19.86;63.05;99659.84;6197127;23;20022;-82
2022/06/10 01:38:25;;;;;;;23.25;11.15;;;;;;;19.78;62.84;99654.91;6222874;23;20069;-80
2022/06/10 01:41:44;;;;;;;;;;;;;;;;;;;;;
2022/06/10 01:45:05;;;;;;;23.67;10.40;;;;;;;19.94;62.77;99668.25;6211599;23;20020;-82
2022/06/10 01:48:01;;;;;;;21.42;10.02;;;;;;;19.99;62.53;99666.22;6221505;23;20028;-81
2022/06/10 01:50:51;;;;;;;24.92;10.85;;;;;;;19.89;62.46;99643.00;6221453;23;20357;-81
2022/06/10 01:53:32;;;;;;;19.48;9.68;;;;;;;20.11;62.25;99671.81;6247661;23;20012;-82
2022/06/10 01:56:29;;;;;;;26.38;10.82;;;;;;;20.17;62.38;99674.16;6222871;23;20015;-82
2022/06/10 01:59:16;;;;;;;23.08;10.50;;;;;;;20.20;62.03;99673.13;6237691;23;20012;-81
2022/06/10 02:01:49;;;;;;;19.13;8.98;;;;;;;20.26;61.89;99681.63;6160730;23;20020;-84
2022/06/10 02:04:23;;;;;;;17.08;9.05;;;;;;;20.23;61.70;99671.19;6197052;23;20016;-81
2022/06/10 02:06:52;;;;;;;19.98;8.85;;;;;;;20.35;61.82;99685.56;6226325;23;20401;-82
2022/06/10 02:09:24;;;;;;;9.40;8.05;;;;;;;20.32;62.04;99672.50;6220863;23;20016;-81
2022/06/10 02:12:07;;;;;;;19.42;8.85;;;;;;;20.35;62.08;99668.84;6223248;23;20016;-82
2022/06/10 02:14:39;;;;;;;15.50;8.43;;;;;;;20.42;61.95;99679.00;6195402;23;20031;-82
2022/06/10 02:17:10;;;;;;;16.70;8.48;;;;;;;20.45;62.22;99672.75;6248700;23;20020;-82
2022/06/10 02:19:50;;;;;;;11.70;8.05;;;;;;;20.55;62.09;99671.31;6254286;23;20020;-82
2022/06/10 02:22:22;;;;;;;12.07;8.40;;;;;;;20.63;61.98;99670.94;6191982;23;20015;-82
2022/06/10 02:25:04;;;;;;;14.43;8.52;;;;;;;20.64;61.96;99664.69;6235335;23;20012;-81
2022/06/10 02:27:37;;;;;;;12.32;8.48;;;;;;;20.70;61.62;99663.53;6250052;23;20036;-80
2022/06/10 02:30:17;;;;;;;12.93;8.57;;;;;;;20.84;61.86;99650.44;6222687;23;20019;-82
2022/06/10 02:32:43;;;;;;;14.15;9.25;;;;;;;20.65;61.66;99631.19;6220981;23;20093;-82
2022/06/10 02:35:11;;;;;;;13.57;9.60;;;;;;;20.88;62.43;99670.50;6219604;23;20047;-81
2022/06/10 02:37:46;;;;;;;12.00;9.20;;;;;;;20.92;62.92;99676.47;6195473;23;20052;-81
2022/06/10 02:40:43;;;;;;;16.83;10.15;;;;;;;20.97;63.61;99677.06;6219312;23;20441;-81
2022/06/10 02:43:40;;;;;;;13.15;9.38;;;;;;;21.01;63.97;99681.25;6193704;23;20023;-82
2022/06/10 02:46:16;;;;;;;11.95;9.38;;;;;;;21.09;64.43;99683.50;6218698;23;20027;-81
2022/06/10 02:48:54;;;;;;;13.63;9.15;;;;;;;21.19;64.54;99684.69;6246037;23;20016;-81
2022/06/10 02:51:21;;;;;;;12.30;9.30;;;;;;;21.26;64.26;99669.34;6219196;23;20153;-82
2022/06/10 02:53:47;;;;;;;9.38;8.20;;;;;;;21.40;63.91;99689.75;6219556;23;20020;-81
2022/06/10 02:56:27;;;;;;;12.40;8.77;;;;;;;21.45;63.76;99684.19;6245070;23;20023;-80
2022/06/10 03:01:58;;;;;;;12.15;8.68;;;;;;;21.64;62.89;99682.22;6251351;23;20024;-80
2022/06/10 03:04:42;;;;;;;16.83;9.05;;;;;;;21.73;62.58;99677.38;6219775;23;20015;-79
2022/06/10 03:07:33;;;;;;;11.25;8.02;;;;;;;21.84;62.06;99684.69;6245447;23;20037;-81
2022/06/10 03:10:37;;;;;;;13.15;8.40;;;;;;;21.98;61.50;99676.78;6219021;23;20031;-82
2022/06/10 03:13:33;;;;;;;15.68;9.18;;;;;;;22.08;61.31;99666.50;6195470;23;20015;-83
2022/06/10 03:16:11;;;;;;;12.38;9.43;;;;;;;22.21;60.80;99666.63;6194813;23;20028;-82
2022/06/10 03:18:52;;;;;;;11.65;8.57;;;;;;;22.36;60.40;99686.06;6247681;23;20084;-82
2022/06/10 03:21:36;;;;;;;12.37;8.63;;;;;;;22.35;60.17;99682.53;6246740;23;20027;-82
2022/06/10 03:24:15;;;;;;;12.95;8.90;;;;;;;22.39;60.23;99675.28;6248011;23;20239;-82
2022/06/10 03:26:59;;;;;;;12.65;7.88;;;;;;;22.64;59.79;99668.50;6224034;23;20019;-82
2022/06/10 03:29:37;;;;;;;11.07;7.68;;;;;;;22.98;59.40;99666.41;6253495;23;20043;-82
2022/06/10 03:32:29;;;;;;;10.25;7.88;;;;;;;23.35;58.67;99657.94;6247187;23;20016;-83
2022/06/10 03:35:06;;;;;;;14.05;7.68;;;;;;;23.46;57.83;99635.06;6173837;23;20016;-82
2022/06/10 03:37:33;;;;;;;8.77;7.32;;;;;;;23.78;57.18;99649.81;6247129;23;20073;-82
2022/06/10 03:39:59;;;;;;;8.70;7.45;;;;;;;23.67;56.33;99621.31;6219909;23;20111;-82
2022/06/10 03:42:26;;;;;;;8.77;7.15;;;;;;;23.82;56.28;99663.75;6220032;23;20043;-81
2022/06/10 03:44:54;;;;;;;10.63;7.32;;;;;;;23.80;56.10;99663.00;6248696;23;20073;-82
2022/06/10 03:47:29;;;;;;;9.02;6.88;;;;;;;23.93;55.83;99650.59;6257470;23;20016;-81
2022/06/10 03:49:58;;;;;;;7.88;6.50;;;;;;;24.19;55.57;99662.16;6248092;23;20088;-81
2022/06/10 03:52:29;;;;;;;9.00;7.47;;;;;;;24.39;55.20;99651.97;6246165;23;20481;-82
2022/06/10 03:54:55;;;;;;;8.60;7.18;;;;;;;24.67;54.52;99661.50;6232600;23;20042;-81
2022/06/10 03:57:21;;;;;;;7.20;6.28;;;;;;;24.82;53.75;99661.44;6245391;23;20062;-82
2022/06/10 03:59:47;;;;;;;8.00;6.80;;;;;;;24.96;53.92;99661.31;6217746;23;20054;-80
2022/06/10 04:02:14;;;;;;;8.73;7.25;;;;;;;25.07;53.00;99654.34;6249735;23;20352;-79
2022/06/10 04:04:42;;;;;;;7.40;6.47;;;;;;;25.26;52.92;99664.53;6189622;23;20008;-79
2022/06/10 04:07:10;;;;;;;9.80;6.97;;;;;;;25.24;52.82;99646.00;6243084;23;20008;-81
2022/06/10 04:09:37;;;;;;;7.10;6.40;;;;;;;25.25;52.35;99622.88;6243799;23;20008;-80
2022/06/10 04:12:03;;;;;;;7.93;6.00;;;;;;;25.44;52.19;99633.06;6270120;23;20026;-82
2022/06/10 04:14:30;;;;;;;6.63;6.03;;;;;;;25.44;51.73;99637.53;6217949;23;20022;-83
2022/06/10 04:16:56;;;;;;;6.85;6.25;;;;;;;25.57;51.45;99667.66;6237009;23;20020;-80
2022/06/10 04:19:22;;;;;;;8.70;6.53;;;;;;;25.51;51.42;99652.94;6236300;23;20031;-82
2022/06/10 04:21:49;;;;;;;8.13;6.38;;;;;;;25.61;51.09;99661.09;6236078;23;20025;-81
2022/06/10 04:24:16;;;;;;;8.60;5.90;;;;;;;25.80;50.77;99665.91;6236370;23;20004;-81
2022/06/10 04:26:45;;;;;;;8.38;6.10;;;;;;;25.99;50.23;99667.19;6235833;23;20374;-80
2022/06/10 04:29:13;;;;;;;6.57;6.00;;;;;;;25.96;50.18;99648.75;6210241;23;20039;-81
2022/06/10 04:31:40;;;;;;;8.60;5.47;;;;;;;26.16;49.50;99661.44;6201981;23;20071;-82
2022/06/10 04:34:07;;;;;;;9.20;6.10;;;;;;;26.28;49.18;99656.16;6217124;23;20070;-81
2022/06/10 04:36:33;;;;;;;9.43;6.18;;;;;;;26.40;48.76;99660.53;6190519;23;20024;-81
2022/06/10 04:38:59;;;;;;;10.05;6.55;;;;;;;26.51;48.84;99656.19;6215731;23;20024;-81
2022/06/10 04:41:26;;;;;;;8.35;5.80;;;;;;;26.59;48.19;99643.13;6215087;23;20016;-83
2022/06/10 04:43:52;;;;;;;10.85;5.85;;;;;;;26.59;48.24;99629.78;6216595;23;20020;-82
2022/06/10 04:46:31;;;;;;;7.78;6.13;;;;;;;26.61;47.56;99615.34;6214328;23;20013;-81
2022/06/10 04:48:58;;;;;;;6.68;5.95;;;;;;;26.89;47.29;99647.00;6197015;23;20007;-81
2022/06/10 04:51:24;;;;;;;6.30;5.70;;;;;;;27.14;46.63;99669.91;6215666;23;20023;-79
2022/06/10 04:53:51;;;;;;;7.07;6.22;;;;;;;27.22;46.65;99661.28;6216779;23;20020;-80
2022/06/10 04:56:17;;;;;;;6.78;6.10;;;;;;;27.39;46.23;99672.41;6215514;23;20423;-81
2022/06/10 04:58:44;;;;;;;6.28;5.60;;;;;;;27.34;45.87;99649.59;6217533;23;20020;-81
2022/06/10 05:01:10;;;;;;;9.27;6.13;;;;;;;27.43;45.62;99641.81;6191816;23;20016;-80
2022/06/10 05:03:36;;;;;;;15.30;5.85;;;;;;;27.68;45.02;99651.34;6193879;23;20066;-80
2022/06/10 05:06:03;;;;;;;7.75;5.53;;;;;;;27.71;45.05;99644.88;6217849;23;20027;-82
2022/06/10 05:08:29;;;;;;;7.10;5.70;;;;;;;27.76;44.44;99642.66;6217533;23;20107;-83
2022/06/10 05:10:56;;;;;;;9.23;6.22;;;;;;;28.03;44.17;99658.19;6190667;23;20020;-82
2022/06/10 05:13:22;;;;;;;8.02;6.03;;;;;;;28.36;43.57;99687.59;6166747;23;20023;-79
2022/06/10 05:15:49;;;;;;;6.57;5.97;;;;;;;28.19;43.23;99635.56;6189195;23;20100;-81
2022/06/10 05:18:20;;;;;;;7.00;5.70;;;;;;;28.62;42.93;99668.44;6197537;23;20012;-80
2022/06/10 05:20:47;;;;;;;7.18;5.90;;;;;;;28.95;42.64;99677.22;6234818;23;20040;-83
2022/06/10 05:23:15;;;;;;;6.72;5.60;;;;;;;28.96;41.89;99654.81;6220417;23;20017;-81
2022/06/10 05:25:42;;;;;;;6.75;6.07;;;;;;;29.18;41.56;99682.34;6214353;23;20079;-82
2022/06/10 05:28:10;;;;;;;7.00;6.00;;;;;;;29.22;40.96;99668.53;6216666;23;20020;-81
2022/06/10 05:30:37;;;;;;;7.18;5.80;;;;;;;29.26;40.62;99675.31;6227478;23;20029;-81
2022/06/10 05:33:05;;;;;;;6.93;6.25;;;;;;;29.16;40.46;99659.22;6237243;23;20058;-82
2022/06/10 05:35:31;;;;;;;6.00;5.40;;;;;;;29.39;40.51;99680.47;6224780;23;20017;-81
2022/06/10 05:37:59;;;;;;;10.25;6.32;;;;;;;29.20;40.08;99632.19;6216138;23;20024;-84
2022/06/10 05:40:31;;;;;;;7.53;6.60;;;;;;;29.31;39.79;99634.72;6165644;23;20016;-81
2022/06/10 05:42:58;;;;;;;6.70;6.03;;;;;;;29.31;39.25;99640.06;6215420;23;20405;-82
2022/06/10 05:45:25;;;;;;;8.07;6.28;;;;;;;29.63;39.10;99678.38;6218727;23;20016;-81
2022/06/10 05:47:55;;;;;;;7.97;6.38;;;;;;;29.89;39.03;99681.34;6218382;23;20243;-81
2022/06/10 05:50:28;;;;;;;8.00;6.38;;;;;;;30.24;38.84;99645.03;6193064;23;20016;-82
2022/06/10 05:52:54;;;;;;;6.35;5.75;;;;;;;32.16;36.98;99676.63;6219488;23;20043;-83
2022/06/10 05:55:22;;;;;;;6.35;5.75;;;;;;;33.80;34.69;99661.31;6221862;23;20008;-81
2022/06/10 05:57:50;;;;;;;10.13;5.95;;;;;;;34.91;32.75;99668.91;6218895;23;20020;-84
2022/06/10 06:00:21;;;;;;;7.07;5.10;;;;;;;36.19;30.69;99647.78;6201800;23;20016;-81
2022/06/10 06:02:47;;;;;;;;;;;;;;;37.12;29.32;99682.66;6226959;23;20016;-81
2022/06/10 06:05:14;;;;;;;7.90;5.68;;;;;;;37.67;28.87;99676.78;6201405;23;20004;-81
2022/06/10 06:07:42;;;;;;;7.78;5.93;;;;;;;38.21;27.43;99650.09;6220741;23;20043;-80
2022/06/10 06:10:13;;;;;;;7.05;5.65;;;;;;;37.60;27.06;99687.56;6200564;23;20032;-79
2022/06/10 06:12:39;;;;;;;6.13;5.63;;;;;;;38.61;26.85;99666.66;6201423;23;20031;-80
2022/06/10 06:15:06;;;;;;;5.90;5.43;;;;;;;39.61;25.26;99649.03;6229848;23;20030;-82
2022/06/10 06:17:32;;;;;;;5.55;5.10;;;;;;;40.77;23.59;99643.28;6230985;23;20016;-82
2022/06/10 06:19:58;;;;;;;5.63;5.20;;;;;;;41.81;22.57;99654.00;6240165;23;20016;-83
2022/06/10 06:22:24;;;;;;;6.20;5.60;;;;;;;42.50;21.39;99655.06;6238072;23;20012;-82
2022/06/10 06:24:50;;;;;;;5.68;5.18;;;;;;;41.81;21.34;99658.63;6212610;23;20032;-82
2022/06/10 06:27:16;;;;;;;6.07;5.55;;;;;;;40.66;21.91;99666.59;6238586;23;20016;-83
2022/06/10 06:29:44;;;;;;;6.28;5.57;;;;;;;40.48;22.36;99675.41;6239486;23;20009;-82
2022/06/10 06:32:12;;;;;;;8.93;5.53;;;;;;;40.73;22.02;99640.13;6230845;23;20012;-82
2022/06/10 06:34:41;;;;;;;6.80;5.70;;;;;;;41.63;21.69;99681.22;6192507;23;20024;-82
2022/06/10 06:37:14;;;;;;;6.75;5.60;;;;;;;41.91;21.18;99671.78;6216912;23;20017;-83
2022/06/10 06:39:41;;;;;;;8.80;6.10;;;;;;;41.81;20.33;99681.28;6221150;23;20021;-82
2022/06/10 06:42:12;;;;;;;6.95;5.75;;;;;;;41.22;21.05;99681.47;6198616;23;20021;-81
2022/06/10 06:44:46;;;;;;;8.00;6.15;;;;;;;40.29;21.43;99628.09;6190934;23;20028;-82
2022/06/10 06:47:20;;;;;;;6.07;5.45;;;;;;;40.71;21.06;99635.94;6213915;23;20020;-83
2022/06/10 06:49:49;;;;;;;7.22;5.63;;;;;;;42.12;20.85;99686.94;6214893;23;20492;-82
2022/06/10 06:52:38;;;;;;;7.53;5.27;;;;;;;43.46;19.25;99671.72;6216411;23;20024;-82
2022/06/10 06:55:34;;;;;;;7.00;6.40;;;;;;;43.80;19.06;99657.50;6229894;23;20016;-83
2022/06/10 06:58:12;;;;;;;13.98;12.52;;;;;;;43.87;18.43;99584.28;6228582;23;20012;-83
2022/06/10 07:01:29;;;;;;;;;;;;;;;;;;;;;
2022/06/10 07:04:00;;;;;;;7.53;6.63;;;;;;;46.75;16.71;99644.47;6134009;23;20068;-83
2022/06/10 07:06:27;;;;;;;24.63;21.77;;;;;;;47.55;15.65;99601.78;6229420;23;20050;-83
2022/06/10 07:09:03;;;;;;;;;;;;;;;;;;;;;
2022/06/10 07:12:32;;;;;;;8.30;7.20;;;;;;;48.03;15.22;99609.28;6190476;23;20021;-84
2022/06/10 07:15:01;;;;;;;7.25;5.93;;;;;;;48.60;14.80;99640.72;6141886;23;20025;-84
2022/06/10 07:17:35;;;;;;;6.90;6.13;;;;;;;48.50;14.30;99622.19;6158358;23;20694;-82
2022/06/10 07:20:18;;;;;;;6.50;5.43;;;;;;;48.40;14.35;99611.97;6157978;23;20076;-82
2022/06/10 07:23:08;;;;;;;7.45;6.50;;;;;;;48.49;14.51;99631.56;6148822;23;20088;-83
2022/06/10 07:25:41;;;;;;;;;;;;;;;48.36;14.67;99665.19;6159265;23;20336;-83
2022/06/10 07:28:14;;;;;;;7.28;6.20;;;;;;;47.53;14.91;99661.81;6133569;23;20642;-83
2022/06/10 07:30:45;;;;;;;6.32;5.72;;;;;;;47.62;15.11;99637.41;6132079;23;20024;-82
2022/06/10 07:33:12;;;;;;;6.45;5.40;;;;;;;47.78;14.46;99594.25;6161205;23;20072;-82
2022/06/10 07:35:52;;;;;;;6.28;5.43;;;;;;;48.93;13.91;99659.88;6159530;23;20073;-83
2022/06/10 07:38:50;;;;;;;6.25;5.60;;;;;;;49.22;13.40;99662.16;6183280;23;20021;-81
2022/06/10 07:42:01;;;;;;;6.10;5.63;;;;;;;49.25;13.45;99600.84;6131410;23;20417;-82
2022/06/10 07:45:02;;;;;;;11.82;10.82;;;;;;;49.51;13.52;99628.50;6176656;23;20028;-84
2022/06/10 07:47:31;;;;;;;14.98;13.57;;;;;;;50.32;12.00;99657.09;6136121;23;20029;-82
2022/06/10 07:49:58;;;;;;;14.85;13.38;;;;;;;50.28;12.24;99613.72;6159562;23;20698;-81
2022/06/10 07:52:28;;;;;;;16.42;14.95;;;;;;;50.51;11.80;99598.41;6142600;23;20049;-82
2022/06/10 07:54:57;;;;;;;15.75;14.43;;;;;;;51.22;11.60;99659.13;6174900;23;20018;-83
2022/06/10 07:57:23;;;;;;;13.43;12.05;;;;;;;50.11;12.13;99663.78;6154940;23;20104;-82
2022/06/10 08:00:14;;;;;;;7.95;7.22;;;;;;;48.87;12.58;99636.94;6131575;23;20097;-81
2022/06/10 08:02:44;;;;;;;9.90;6.10;;;;;;;48.59;12.58;99652.03;6157911;23;20013;-83
2022/06/10 08:05:21;;;;;;;9.43;8.52;;;;;;;50.07;12.55;99660.75;6156591;23;20017;-83
2022/06/10 08:07:50;;;;;;;6.75;6.25;;;;;;;50.89;11.91;99597.91;6153325;23;20017;-83
2022/06/10 08:10:29;;;;;;;9.40;8.60;;;;;;;51.52;10.71;99633.16;6153226;23;20404;-82
2022/06/10 08:12:58;;;;;;;8.45;7.45;;;;;;;51.03;11.50;99628.53;6131313;23;20479;-81
2022/06/10 08:15:28;;;;;;;9.63;8.85;;;;;;;51.57;10.95;99640.59;6154309;23;20554;-82
2022/06/10 08:17:57;;;;;;;6.40;5.93;;;;;;;51.13;10.75;99597.97;6157157;23;20032;-82
2022/06/10 08:23:21;;;;;;;7.60;6.90;;;;;;;52.87;9.82;99648.22;6177901;23;20013;-82
2022/06/10 08:25:48;;;;;;;7.20;5.75;;;;;;;53.34;9.17;99656.72;6128764;23;20025;-83
2022/06/10 08:28:14;;;;;;;7.20;5.85;;;;;;;53.29;9.20;99643.75;6156617;23;20052;-84
2022/06/10 08:30:44;;;;;;;8.30;6.18;;;;;;;53.90;9.13;99620.69;6166963;23;20017;-82
2022/06/10 08:33:14;;;;;;;8.07;6.43;;;;;;;54.40;8.63;99631.13;6162780;23;20013;-81
2022/06/10 08:35:40;;;;;;;7.18;6.63;;;;;;;53.83;8.98;99637.78;6158278;23;20092;-83
2022/06/10 08:38:20;;;;;;;7.10;6.40;;;;;;;52.76;9.09;99628.13;6156700;23;20014;-84
2022/06/10 08:41:03;;;;;;;7.18;6.60;;;;;;;52.04;9.06;99640.94;6170586;23;20022;-82
2022/06/10 08:44:20;;;;;;;;;;;;;;;;;;;;;
2022/06/10 08:47:42;;;;;;;7.05;6.43;;;;;;;52.59;9.47;99637.00;6141760;23;20017;-83
2022/06/10 08:50:37;;;;;;;8.40;7.80;;;;;;;51.77;9.58;99645.09;6154731;23;20029;-84
2022/06/10 08:53:41;;;;;;;7.97;7.15;;;;;;;51.14;10.16;99643.94;6153776;23;20021;-82
2022/06/10 08:56:48;;;;;;;7.45;6.75;;;;;;;51.57;10.17;99651.69;6130248;23;20018;-82
2022/06/10 08:59:34;;;;;;;7.63;7.00;;;;;;;51.87;9.84;99651.66;6122871;23;20068;-81
2022/06/10 09:02:25;;;;;;;7.25;6.72;;;;;;;51.78;10.33;99649.53;6154565;23;20041;-83
2022/06/10 09:05:01;;;;;;;14.40;8.30;;;;;;;52.28;9.53;99645.69;6179656;23;20040;-82
2022/06/10 09:07:35;;;;;;;10.05;7.38;;;;;;;51.92;9.69;99576.78;6158513;23;20024;-82
2022/06/10 09:10:07;;;;;;;13.13;8.18;;;;;;;50.16;10.81;99609.31;6134226;23;20148;-81
2022/06/10 09:13:06;;;;;;;11.40;8.75;;;;;;;48.30;11.95;99639.47;6159882;23;20013;-82
2022/06/10 09:15:54;;;;;;;15.73;9.38;;;;;;;48.93;11.70;99640.53;6132394;23;20025;-83
2022/06/10 09:18:37;;;;;;;13.77;11.52;;;;;;;49.70;11.72;99618.53;6159028;23;20021;-82
2022/06/10 09:21:30;;;;;;;11.77;10.15;;;;;;;50.27;10.70;99601.00;6161063;23;20017;-80
2022/06/10 09:24:07;;;;;;;6.07;5.47;;;;;;;50.26;10.76;99569.72;6157615;23;20017;-81
2022/06/10 09:26:50;;;;;;;9.02;8.13;;;;;;;50.87;9.57;99634.16;6163066;23;20013;-83
2022/06/10 09:29:24;;;;;;;11.43;10.35;;;;;;;49.68;10.57;99584.81;6158623;23;20060;-82
2022/06/10 09:32:10;;;;;;;17.77;16.02;;;;;;;49.58;9.97;99642.84;6164180;23;20017;-82
2022/06/10 09:35:04;;;;;;;14.48;13.18;;;;;;;50.52;10.18;99638.78;6131418;23;20021;-84
2022/06/10 09:38:14;;;;;;;;;;;;;;;;;;;;;
2022/06/10 09:40:52;;;;;;;10.57;9.63;;;;;;;50.56;10.01;99642.63;6153926;23;20494;-82
2022/06/10 09:43:45;;;;;;;10.68;9.55;;;;;;;50.55;9.95;99635.44;6159324;23;20040;-82
2022/06/10 09:46:49;;;;;;;9.35;8.45;;;;;;;51.47;9.35;99635.94;6130964;23;20017;-81
2022/06/10 09:49:15;;;;;;;6.78;5.22;;;;;;;51.60;9.36;99631.72;6156287;23;20013;-83
2022/06/10 09:52:07;;;;;;;6.63;5.95;;;;;;;51.03;9.13;99626.59;6155047;23;20021;-81
2022/06/10 09:54:36;;;;;;;6.25;5.65;;;;;;;51.16;9.69;99627.88;6157886;23;20072;-83
2022/06/10 09:57:25;;;;;;;8.10;6.65;;;;;;;50.71;9.64;99629.81;6109255;23;20017;-81
2022/06/10 09:59:57;;;;;;;7.10;6.40;;;;;;;51.02;9.72;99604.75;6157362;23;20037;-83
2022/06/10 10:02:51;;;;;;;6.78;6.28;;;;;;;51.28;9.11;99622.00;6158315;23;20018;-83
2022/06/10 10:05:26;;;;;;;6.45;5.43;;;;;;;51.57;9.66;99607.34;6158035;23;20117;-82
2022/06/10 10:08:02;;;;;;;6.07;5.53;;;;;;;52.12;8.84;99620.06;6155512;23;20067;-83
2022/06/10 10:10:37;;;;;;;9.73;8.27;;;;;;;51.70;8.67;99605.00;6130054;23;20049;-82
2022/06/10 10:13:54;;;;;;;15.82;14.20;;;;;;;51.12;9.50;99624.03;6155323;23;20010;-82
2022/06/10 10:17:31;;;;;;;11.10;8.02;;;;;;;50.56;9.14;99622.44;6176437;23;20093;-82
2022/06/10 10:20:22;;;;;;;7.78;7.10;;;;;;;49.57;9.63;99597.81;6113003;23;20018;-82
2022/06/10 10:22:57;;;;;;;6.60;6.00;;;;;;;48.22;10.34;99621.50;6124869;23;20110;-82
2022/06/10 10:25:25;;;;;;;8.38;7.25;;;;;;;46.32;11.28;99605.75;6150498;23;20025;-83
2022/06/10 10:27:53;;;;;;;6.38;5.35;;;;;;;44.58;11.72;99621.72;6127111;23;20081;-81
2022/06/10 10:30:27;;;;;;;6.57;5.93;;;;;;;43.02;13.28;99621.81;6126566;23;20032;-82
2022/06/10 10:33:00;;;;;;;10.57;9.73;;;;;;;41.57;14.45;99587.44;6150407;23;20360;-81
2022/06/10 10:35:33;;;;;;;10.65;9.70;;;;;;;40.61;15.05;99611.84;6125412;23;20076;-81
2022/06/10 10:38:03;;;;;;;7.68;4.80;;;;;;;39.71;16.10;99615.97;6127184;23;20018;-83
2022/06/10 10:40:56;;;;;;;6.30;5.80;;;;;;;39.07;16.92;99608.09;6101398;23;20085;-82
2022/06/10 10:43:26;;;;;;;6.18;5.22;;;;;;;38.33;16.96;99577.88;6123880;23;20014;-81
2022/06/10 10:46:00;;;;;;;7.47;6.88;;;;;;;38.16;17.69;99619.97;6103494;23;20025;-82
2022/06/10 10:48:36;;;;;;;5.70;5.20;;;;;;;37.53;17.74;99603.41;6126624;23;20103;-81
2022/06/10 10:51:24;;;;;;;6.47;5.90;;;;;;;36.84;18.62;99555.13;6125764;23;20049;-81
2022/06/10 10:53:55;;;;;;;8.20;7.40;;;;;;;36.63;18.58;99595.50;6077754;23;20018;-81
2022/06/10 10:56:37;;;;;;;9.15;8.25;;;;;;;35.97;19.63;99587.28;6106386;23;20021;-81
2022/06/10 10:59:04;;;;;;;;;;;;;;;35.54;20.45;99622.97;6102979;23;20017;-79
2022/06/10 11:01:44;;;;;;;5.75;5.13;;;;;;;34.91;20.56;99607.59;6183485;23;19913;-81
2022/06/10 11:04:31;;;;;;;6.45;5.85;;;;;;;34.60;20.93;99611.13;6124948;23;20017;-80
2022/06/10 11:07:22;;;;;;;7.55;5.07;;;;;;;34.01;21.33;99598.75;6101435;23;20021;-83
2022/06/10 11:09:52;;;;;;;6.65;4.70;;;;;;;33.88;21.74;99622.72;6147737;23;20018;-81
2022/06/10 11:12:27;;;;;;;9.95;4.82;;;;;;;33.56;21.61;99624.38;6124582;23;20072;-81
2022/06/10 11:15:03;;;;;;;6.38;4.40;;;;;;;33.30;22.15;99626.19;6098780;23;20392;-82
2022/06/10 11:17:31;;;;;;;4.85;4.40;;;;;;;33.04;22.51;99632.53;6149748;23;20080;-82
2022/06/10 11:20:21;;;;;;;5.28;4.38;;;;;;;32.75;22.41;99628.38;6154131;23;20467;-81
2022/06/10 11:22:48;;;;;;;4.38;3.95;;;;;;;32.37;23.12;99592.00;6128662;23;20021;-80
2022/06/10 11:25:26;;;;;;;4.50;4.07;;;;;;;31.98;23.39;99552.91;6153802;23;20013;-82
2022/06/10 11:28:16;;;;;;;4.03;3.63;;;;;;;32.26;23.42;99631.59;6153082;23;20072;-82
2022/06/10 11:30:49;;;;;;;4.88;4.40;;;;;;;31.35;23.69;99535.97;6156335;23;20021;-81
2022/06/10 11:33:42;;;;;;;5.63;4.28;;;;;;;31.76;24.30;99611.59;6139149;23;20088;-80
2022/06/10 11:36:30;;;;;;;5.40;4.40;;;;;;;31.64;24.40;99610.13;6136936;23;20021;-81
2022/06/10 11:39:22;;;;;;;4.32;3.92;;;;;;;31.31;24.74;99594.56;6155892;23;20041;-82
2022/06/10 11:42:27;;;;;;;;;;;;;;;31.39;24.82;99640.31;6159684;23;20403;-81
2022/06/10 11:45:17;;;;;;;4.88;4.47;;;;;;;31.17;24.70;99630.00;6156651;23;19912;-80
2022/06/10 11:48:05;;;;;;;6.25;4.00;;;;;;;31.04;24.93;99641.06;6158826;23;20361;-81
2022/06/10 11:50:40;;;;;;;7.30;4.70;;;;;;;30.86;25.39;99647.25;6167875;23;19997;-81
2022/06/10 11:53:22;;;;;;;9.27;4.53;;;;;;;30.64;25.52;99621.66;6198708;23;20096;-82
2022/06/10 11:59:42;;;;;;;5.82;4.13;;;;;;;30.67;25.58;99637.47;6168229;23;20017;-81
2022/06/10 12:02:10;;;;;;;4.15;3.75;;;;;;;30.01;25.84;99599.78;6157250;23;20013;-83
2022/06/10 12:04:49;;;;;;;4.93;4.45;;;;;;;29.92;26.08;99592.56;6137313;23;20068;-81
2022/06/10 12:07:36;;;;;;;10.88;5.00;;;;;;;29.67;26.03;99580.59;6163361;23;20080;-79
2022/06/10 12:10:34;;;;;;;6.30;5.60;;;;;;;29.21;26.33;99526.75;6135233;23;20407;-81
2022/06/10 12:13:15;;;;;;;6.20;4.88;;;;;;;29.37;26.59;99572.59;6162097;23;20032;-80
2022/06/10 12:16:05;;;;;;;5.28;4.63;;;;;;;29.53;26.87;99622.94;6139350;23;20032;-80
2022/06/10 12:18:44;;;;;;;4.65;4.25;;;;;;;29.21;26.99;99591.03;6158463;23;20075;-81
2022/06/10 12:21:30;;;;;;;5.22;4.72;;;;;;;29.18;27.04;99585.94;6100279;23;20022;-80
2022/06/10 12:24:13;;;;;;;8.15;7.35;;;;;;;29.31;27.25;99626.69;6101756;23;20029;-83
2022/06/10 12:27:06;;;;;;;6.47;4.47;;;;;;;29.27;27.33;99626.13;6105614;23;20080;-82
2022/06/10 12:29:39;;;;;;;5.88;4.53;;;;;;;29.09;27.55;99612.56;6125044;23;20022;-82
2022/06/10 12:32:21;;;;;;;4.60;4.15;;;;;;;29.15;27.73;99632.56;6077187;23;20061;-81
2022/06/10 12:34:58;;;;;;;5.35;4.22;;;;;;;29.01;28.01;99620.44;6122385;23;20018;-83